Royal Clipper — 9HA2796 — position and weather

sailwx.info

Track history (hours):
 
Tides and Currents Weather Stations Pressure Air Temp Water Temp Dewpoint Dewpoint Depression Visibility Wind Speed Wind Dir Waves Ship Positions

Royal Clipper

Last reported at 2019-Apr-23 18:10 UTC. Time now 2019-Apr-26 04:23 UTC.
Position N 36°57' W 008°14'.

Length 137 m; draft 6.2 m.

Type: Ship. MMSI: 215813000.

Date/timePositionNaut miles runAvg speedWind from/ knotsBaromVisibWave heightAir tempDewpointWater temp
2019-Apr-23 18:10N 36°57' W 008°14'2 7.9
2019-Apr-23 17:58N 36°58' W 008°15'2 5.2
2019-Apr-23 17:30N 36°59' W 008°18'511.1
2019-Apr-23 17:00N 37°02' W 008°24'611.3
2019-Apr-23 16:30N 37°05' W 008°30'3 6.1
2019-Apr-23 15:57N 37°08' W 008°32'0 0.0
2019-Apr-23 15:30N 37°08' W 008°32'0 0.0
2019-Apr-23 15:00N 37°08' W 008°32'0 0.0
2019-Apr-23 14:30N 37°08' W 008°32'0 0.0
2019-Apr-23 14:00N 37°08' W 008°32'0 0.0
2019-Apr-23 13:30N 37°08' W 008°32'0 0.0
2019-Apr-23 13:00N 37°08' W 008°32'0 0.0
2019-Apr-23 12:30N 37°08' W 008°32'0 0.0
2019-Apr-23 12:00N 37°08' W 008°32'0 0.0
2019-Apr-23 11:30N 37°08' W 008°32'0 0.0
2019-Apr-23 11:00N 37°08' W 008°32'2 3.4
2019-Apr-23 10:30N 37°06' W 008°32'5 9.7
2019-Apr-23 10:00N 37°01' W 008°34'5 9.3
2019-Apr-23 09:30N 36°59' W 008°39'5 9.0
2019-Apr-23 08:59N 36°56' W 008°44'55 7.1
2019-Apr-23 01:17N 37°44' W 009°17'310.0
2019-Apr-23 01:00N 37°47' W 009°18'510.3
2019-Apr-23 00:30N 37°52' W 009°18'510.2
2019-Apr-23 00:00N 37°57' W 009°19'510.5
2019-Apr-22 23:30N 38°02' W 009°19'510.3
2019-Apr-22 23:00N 38°08' W 009°20'5 9.7
2019-Apr-22 22:30N 38°12' W 009°21'610.3
2019-Apr-22 21:58N 38°18' W 009°21'510.7
2019-Apr-22 21:30N 38°23' W 009°22'510.8
2019-Apr-22 21:00N 38°28' W 009°22'511.0
2019-Apr-22 20:30N 38°34' W 009°23'510.5
2019-Apr-22 20:00N 38°39' W 009°21'510.3
2019-Apr-22 19:30N 38°41' W 009°15'4 8.9
2019-Apr-22 19:00N 38°42' W 009°09'2 2.7
2019-Apr-22 18:25N 38°43' W 009°07'0 0.0
2019-Apr-22 17:58N 38°43' W 009°07'0 0.0
2019-Apr-22 17:28N 38°43' W 009°07'0 0.0
2019-Apr-22 16:58N 38°43' W 009°07'0 0.0
2019-Apr-22 16:28N 38°43' W 009°07'0 0.0
2019-Apr-22 15:58N 38°43' W 009°07'0 0.0
2019-Apr-22 15:25N 38°43' W 009°07'0 0.0
2019-Apr-22 14:52N 38°43' W 009°07'0 0.0
2019-Apr-22 14:28N 38°43' W 009°07'0 0.0
2019-Apr-22 13:52N 38°43' W 009°07'0 0.0
2019-Apr-22 13:28N 38°43' W 009°07'0 0.0
2019-Apr-22 12:58N 38°43' W 009°07'0 0.0
2019-Apr-22 12:16N 38°43' W 009°07'0 0.0
2019-Apr-22 11:55N 38°43' W 009°07'0 0.0
2019-Apr-22 11:28N 38°43' W 009°07'0 0.0
2019-Apr-22 10:58N 38°43' W 009°07'0 0.0
2019-Apr-22 10:28N 38°43' W 009°07'0 0.0
2019-Apr-22 09:52N 38°43' W 009°07'0 0.0
2019-Apr-22 09:22N 38°43' W 009°07'0 0.0
2019-Apr-22 08:58N 38°43' W 009°07'0 0.0
2019-Apr-22 08:28N 38°43' W 009°07'0 0.0
2019-Apr-22 07:58N 38°43' W 009°07'0 0.0
2019-Apr-22 07:25N 38°43' W 009°07'0 0.0
2019-Apr-22 06:55N 38°43' W 009°07'0 0.0
2019-Apr-22 06:28N 38°43' W 009°07'0 0.0
2019-Apr-22 05:58N 38°43' W 009°07'0 0.0
2019-Apr-22 05:28N 38°43' W 009°07'0 0.0
2019-Apr-22 04:56N 38°43' W 009°07'1 1.2
2019-Apr-22 04:30N 38°42' W 009°08'5 9.7
2019-Apr-22 03:59N 38°41' W 009°14'4 8.2
2019-Apr-22 03:30N 38°40' W 009°19'4 8.7
2019-Apr-22 03:00N 38°37' W 009°23'5 9.3
2019-Apr-22 02:30N 38°34' W 009°28'510.1
2019-Apr-22 02:00N 38°32' W 009°33'612.1
2019-Apr-22 01:30N 38°29' W 009°40'612.3
2019-Apr-22 01:00N 38°25' W 009°46'612.2
2019-Apr-22 00:30N 38°21' W 009°52'612.2
2019-Apr-22 00:00N 38°17' W 009°58'612.4
2019-Apr-21 23:30N 38°14' W 010°05'612.0
2019-Apr-21 23:00N 38°10' W 010°11'4 8.4
2019-Apr-21 22:30N 38°08' W 010°15'5 9.9
2019-Apr-21 22:00N 38°05' W 010°20'5 9.7
2019-Apr-21 21:30N 38°02' W 010°26'29 9.3
2019-Apr-21 18:26N 37°45' W 010°55'  
Track history (hours):
 
Tides and Currents Weather Stations Pressure Air Temp Water Temp Dewpoint Dewpoint Depression Visibility Wind Speed Wind Dir Waves Ship Positions

Royal Clipper

Last reported at 2019-Apr-23 18:10 UTC. Time now 2019-Apr-26 04:23 UTC.
Position N 36°57' W 008°14'.

Length 137 m; draft 6.2 m.

Type: Ship. MMSI: 215813000.

Date/timePositionNaut miles runAvg speedWind from/ knotsBaromVisibWave heightAir tempDewpointWater temp
2019-Apr-23 18:10N 36°57' W 008°14'2 7.9
2019-Apr-23 17:58N 36°58' W 008°15'2 5.2
2019-Apr-23 17:30N 36°59' W 008°18'511.1
2019-Apr-23 17:00N 37°02' W 008°24'611.3
2019-Apr-23 16:30N 37°05' W 008°30'3 6.1
2019-Apr-23 15:57N 37°08' W 008°32'0 0.0
2019-Apr-23 15:30N 37°08' W 008°32'0 0.0
2019-Apr-23 15:00N 37°08' W 008°32'0 0.0
2019-Apr-23 14:30N 37°08' W 008°32'0 0.0
2019-Apr-23 14:00N 37°08' W 008°32'0 0.0
2019-Apr-23 13:30N 37°08' W 008°32'0 0.0
2019-Apr-23 13:00N 37°08' W 008°32'0 0.0
2019-Apr-23 12:30N 37°08' W 008°32'0 0.0
2019-Apr-23 12:00N 37°08' W 008°32'0 0.0
2019-Apr-23 11:30N 37°08' W 008°32'0 0.0
2019-Apr-23 11:00N 37°08' W 008°32'2 3.4
2019-Apr-23 10:30N 37°06' W 008°32'5 9.7
2019-Apr-23 10:00N 37°01' W 008°34'5 9.3
2019-Apr-23 09:30N 36°59' W 008°39'5 9.0
2019-Apr-23 08:59N 36°56' W 008°44'55 7.1
2019-Apr-23 01:17N 37°44' W 009°17'310.0
2019-Apr-23 01:00N 37°47' W 009°18'510.3
2019-Apr-23 00:30N 37°52' W 009°18'510.2
2019-Apr-23 00:00N 37°57' W 009°19'510.5
2019-Apr-22 23:30N 38°02' W 009°19'510.3
2019-Apr-22 23:00N 38°08' W 009°20'5 9.7
2019-Apr-22 22:30N 38°12' W 009°21'610.3
2019-Apr-22 21:58N 38°18' W 009°21'510.7
2019-Apr-22 21:30N 38°23' W 009°22'510.8
2019-Apr-22 21:00N 38°28' W 009°22'511.0
2019-Apr-22 20:30N 38°34' W 009°23'510.5
2019-Apr-22 20:00N 38°39' W 009°21'510.3
2019-Apr-22 19:30N 38°41' W 009°15'4 8.9
2019-Apr-22 19:00N 38°42' W 009°09'2 2.7
2019-Apr-22 18:25N 38°43' W 009°07'0 0.0
2019-Apr-22 17:58N 38°43' W 009°07'0 0.0
2019-Apr-22 17:28N 38°43' W 009°07'0 0.0
2019-Apr-22 16:58N 38°43' W 009°07'0 0.0
2019-Apr-22 16:28N 38°43' W 009°07'0 0.0
2019-Apr-22 15:58N 38°43' W 009°07'0 0.0
2019-Apr-22 15:25N 38°43' W 009°07'0 0.0
2019-Apr-22 14:52N 38°43' W 009°07'0 0.0
2019-Apr-22 14:28N 38°43' W 009°07'0 0.0
2019-Apr-22 13:52N 38°43' W 009°07'0 0.0
2019-Apr-22 13:28N 38°43' W 009°07'0 0.0
2019-Apr-22 12:58N 38°43' W 009°07'0 0.0
2019-Apr-22 12:16N 38°43' W 009°07'0 0.0
2019-Apr-22 11:55N 38°43' W 009°07'0 0.0
2019-Apr-22 11:28N 38°43' W 009°07'0 0.0
2019-Apr-22 10:58N 38°43' W 009°07'0 0.0
2019-Apr-22 10:28N 38°43' W 009°07'0 0.0
2019-Apr-22 09:52N 38°43' W 009°07'0 0.0
2019-Apr-22 09:22N 38°43' W 009°07'0 0.0
2019-Apr-22 08:58N 38°43' W 009°07'0 0.0
2019-Apr-22 08:28N 38°43' W 009°07'0 0.0
2019-Apr-22 07:58N 38°43' W 009°07'0 0.0
2019-Apr-22 07:25N 38°43' W 009°07'0 0.0
2019-Apr-22 06:55N 38°43' W 009°07'0 0.0
2019-Apr-22 06:28N 38°43' W 009°07'0 0.0
2019-Apr-22 05:58N 38°43' W 009°07'0 0.0
2019-Apr-22 05:28N 38°43' W 009°07'0 0.0
2019-Apr-22 04:56N 38°43' W 009°07'1 1.2
2019-Apr-22 04:30N 38°42' W 009°08'5 9.7
2019-Apr-22 03:59N 38°41' W 009°14'4 8.2
2019-Apr-22 03:30N 38°40' W 009°19'4 8.7
2019-Apr-22 03:00N 38°37' W 009°23'5 9.3
2019-Apr-22 02:30N 38°34' W 009°28'510.1
2019-Apr-22 02:00N 38°32' W 009°33'612.1
2019-Apr-22 01:30N 38°29' W 009°40'612.3
2019-Apr-22 01:00N 38°25' W 009°46'612.2
2019-Apr-22 00:30N 38°21' W 009°52'612.2
2019-Apr-22 00:00N 38°17' W 009°58'612.4
2019-Apr-21 23:30N 38°14' W 010°05'612.0
2019-Apr-21 23:00N 38°10' W 010°11'4 8.4
2019-Apr-21 22:30N 38°08' W 010°15'5 9.9
2019-Apr-21 22:00N 38°05' W 010°20'5 9.7
2019-Apr-21 21:30N 38°02' W 010°26'29 9.3
2019-Apr-21 18:26N 37°45' W 010°55'  

Dump ship's entire track history